Time;durP1;ratioP1;P1;durP2;ratioP2;P2;SDS_P1;SDS_P2;PMS_P1;PMS_P2;Temp;Humidity;BMP_temperature;BMP_pressure;BME280_temperature;BME280_humidity;BME280_pressure;Samples;Min_cycle;Max_cycle;Signal;HPM_P1;HPM_P2
2023/03/20 06:31:22;;;;;;;3.83;3.53;;;7.10;99.90;;;;;;5160443;27;20632;-78
2023/03/20 06:48:22;;;;;;;25.27;11.03;;;7.50;99.90;;;;;;5132556;27;20737;-76
2023/03/20 06:55:08;;;;;;;10.27;5.87;;;7.70;99.90;;;;;;5132953;27;20270;-76
2023/03/20 07:02:15;;;;;;;3.10;2.80;;;7.60;99.90;;;;;;5131665;27;20306;-76
2023/03/20 07:06:38;;;;;;;5.23;3.20;;;7.60;99.90;;;;;;5174023;27;20285;-76
2023/03/20 07:09:04;;;;;;;4.90;3.00;;;;;;;;;;5152530;27;20260;-76
2023/03/20 07:11:30;;;;;;;3.57;3.13;;;;;;;;;;5120231;28;20610;-76
2023/03/20 07:13:56;;;;;;;3.43;2.87;;;8.30;99.90;;;;;;5132126;28;20265;-76
2023/03/20 07:16:21;;;;;;;3.20;2.60;;;8.10;99.90;;;;;;5113338;28;20264;-76
2023/03/20 07:18:47;;;;;;;2.93;2.40;;;;;;;;;;5131700;28;20170;-76
2023/03/20 07:21:19;;;;;;;2.03;1.90;;;8.40;99.90;;;;;;5131510;27;20268;-76
2023/03/20 07:23:45;;;;;;;1.87;1.67;;;8.10;99.90;;;;;;5131495;28;20521;-76
2023/03/20 07:29:18;;;;;;;10.47;5.70;;;7.90;99.90;;;;;;5132473;27;20267;-76
2023/03/20 07:33:14;;;;;;;5.30;4.80;;;8.50;99.90;;;;;;5070911;28;20940;-75
2023/03/20 07:35:40;;;;;;;7.10;5.20;;;8.70;99.90;;;;;;5070972;28;20626;-77
2023/03/20 07:38:06;;;;;;;5.27;3.90;;;9.40;99.90;;;;;;5070592;28;20221;-76
2023/03/20 07:40:32;;;;;;;5.07;2.90;;;10.60;99.90;;;;;;5070818;28;20199;-76
2023/03/20 07:42:58;;;;;;;4.90;3.30;;;12.00;99.90;;;;;;5070483;28;20170;-76
2023/03/20 07:45:23;;;;;;;3.30;1.47;;;12.00;99.90;;;;;;5069184;28;20246;-76
2023/03/20 07:47:49;;;;;;;3.40;1.40;;;11.50;99.90;;;;;;5069214;28;20670;-76
2023/03/20 07:50:15;;;;;;;2.50;1.20;;;10.10;99.90;;;;;;5070282;28;20193;-76
2023/03/20 07:52:48;;;;;;;5.67;3.23;;;10.00;99.90;;;;;;5070142;28;20232;-76
2023/03/20 07:55:16;;;;;;;1.90;1.30;;;9.80;99.90;;;;;;5071323;28;20730;-75
2023/03/20 07:57:42;;;;;;;9.40;4.93;;;10.10;99.90;;;;;;5090258;28;20256;-75
2023/03/20 08:00:08;;;;;;;6.53;2.40;;;9.60;99.90;;;;;;5089916;28;20255;-75
2023/03/20 08:02:34;;;;;;;3.60;2.20;;;9.50;99.90;;;;;;5090080;28;20634;-75
2023/03/20 08:05:00;;;;;;;6.37;3.57;;;9.30;99.90;;;;;;5090083;28;20187;-76
2023/03/20 08:07:28;;;;;;;30.00;12.90;;;;;;;;;;5089748;28;20188;-75
2023/03/20 08:09:54;;;;;;;22.97;9.80;;;8.90;99.90;;;;;;5090440;28;20172;-75
2023/03/20 08:12:20;;;;;;;13.63;6.90;;;9.10;99.90;;;;;;5089854;28;20200;-76
2023/03/20 08:14:46;;;;;;;11.17;7.20;;;;;;;;;;5090472;28;20685;-76
2023/03/20 08:17:12;;;;;;;19.40;9.47;;;9.30;99.90;;;;;;5091618;28;20164;-76
2023/03/20 08:19:38;;;;;;;7.93;4.17;;;8.90;99.90;;;;;;5073308;28;20181;-76
2023/03/20 08:22:04;;;;;;;5.07;2.83;;;9.10;99.90;;;;;;5092041;28;20218;-76
2023/03/20 08:24:30;;;;;;;15.13;7.67;;;;;;;;;;5090761;28;20177;-76
2023/03/20 08:26:56;;;;;;;2.83;2.07;;;9.10;99.90;;;;;;5089808;28;20229;-75
2023/03/20 08:30:19;;;;;;;12.07;7.73;;;;;;;;;;5143899;27;20609;-75
2023/03/20 08:32:45;;;;;;;3.63;1.70;;;;;;;;;;5111042;28;20171;-76
2023/03/20 08:35:11;;;;;;;17.67;9.70;;;;;;;;;;5109915;28;20660;-76
2023/03/20 08:37:37;;;;;;;13.07;7.23;;;9.70;99.90;;;;;;5110999;28;20229;-76
2023/03/20 08:40:05;;;;;;;4.53;2.93;;;9.20;99.90;;;;;;5111201;28;20179;-75
2023/03/20 08:42:31;;;;;;;10.47;6.20;;;9.10;99.90;;;;;;5110673;28;20175;-76
2023/03/20 08:47:21;;;;;;;10.13;5.50;;;9.40;99.90;;;;;;5070512;28;20574;-76
2023/03/20 08:53:47;;;;;;;1.20;1.10;;;9.00;99.90;;;;;;5173283;27;20265;-77
2023/03/20 08:59:45;;;;;;;9.67;6.37;;;9.00;99.90;;;;;;5131824;27;20275;-76
2023/03/20 09:03:26;;;;;;;4.03;2.73;;;9.50;99.90;;;;;;5173602;27;20269;-76
2023/03/20 09:05:52;;;;;;;1.50;1.40;;;9.20;99.90;;;;;;5152315;27;20202;-76
2023/03/20 09:08:18;;;;;;;3.93;3.43;;;9.60;99.90;;;;;;5152207;27;20181;-76
2023/03/20 09:10:44;;;;;;;3.23;2.53;;;;;;;;;;5145037;27;20216;-76
2023/03/20 09:13:10;;;;;;;2.27;2.03;;;;;;;;;;5131151;28;20159;-76
2023/03/20 09:15:36;;;;;;;1.40;1.30;;;11.50;99.90;;;;;;5112528;28;20202;-77
2023/03/20 09:18:01;;;;;;;1.87;1.20;;;12.10;99.90;;;;;;5130680;28;20195;-76
2023/03/20 09:20:27;;;;;;;1.50;1.40;;;12.10;99.90;;;;;;5131376;27;20726;-77
2023/03/20 09:22:53;;;;;;;2.20;1.63;;;12.00;99.90;;;;;;5130687;28;20211;-76
2023/03/20 09:25:19;;;;;;;2.07;1.53;;;11.60;99.90;;;;;;5131583;28;20179;-77
2023/03/20 09:27:45;;;;;;;2.07;1.13;;;11.10;99.90;;;;;;5131186;28;20173;-77
2023/03/20 09:30:11;;;;;;;1.23;1.13;;;11.70;99.90;;;;;;5131021;27;20164;-77
2023/03/20 09:32:37;;;;;;;2.40;1.80;;;11.70;99.90;;;;;;5131358;28;20178;-77
2023/03/20 09:35:04;;;;;;;1.40;1.17;;;12.40;99.90;;;;;;5131951;28;20217;-77
2023/03/20 09:37:29;;;;;;;1.47;1.20;;;12.30;99.90;;;;;;5131687;28;20582;-77
2023/03/20 09:39:55;;;;;;;1.90;1.50;;;11.80;99.90;;;;;;5131162;27;20204;-77
2023/03/20 09:42:23;;;;;;;1.37;1.17;;;11.80;99.90;;;;;;5130080;28;20267;-77
2023/03/20 09:44:54;;;;;;;1.30;1.13;;;12.40;99.90;;;;;;5112110;28;20600;-77
2023/03/20 09:47:23;;;;;;;1.10;0.90;;;12.50;99.90;;;;;;5130108;28;20237;-77
2023/03/20 09:50:06;;;;;;;2.97;1.63;;;12.40;99.90;;;;;;5130840;28;20174;-77
2023/03/20 09:52:42;;;;;;;1.83;0.90;;;12.70;99.90;;;;;;5130178;28;20166;-77
2023/03/20 09:55:15;;;;;;;2.07;1.60;;;12.90;99.90;;;;;;5112943;28;20185;-77
2023/03/20 09:57:45;;;;;;;1.80;1.30;;;12.50;99.90;;;;;;5112663;28;20257;-77
2023/03/20 10:00:25;;;;;;;3.10;1.83;;;12.10;99.90;;;;;;5131042;27;20159;-77
2023/03/20 10:03:03;;;;;;;2.17;1.40;;;12.10;99.90;;;;;;5112550;28;20210;-77
2023/03/20 10:05:41;;;;;;;1.30;1.10;;;12.70;99.90;;;;;;5112574;28;20165;-77
2023/03/20 10:08:15;;;;;;;1.17;0.80;;;13.20;99.90;;;;;;5130713;28;20164;-77
2023/03/20 10:10:50;;;;;;;1.00;0.77;;;12.90;99.90;;;;;;5112252;28;20221;-77
2023/03/20 10:13:40;;;;;;;0.97;0.80;;;12.80;99.90;;;;;;5125399;27;20204;-77
2023/03/20 10:16:14;;;;;;;1.73;0.90;;;12.80;99.90;;;;;;5117385;28;20203;-77
2023/03/20 10:19:08;;;;;;;0.97;0.70;;;12.70;99.90;;;;;;5098632;28;20173;-77
2023/03/20 10:21:43;;;;;;;0.70;0.70;;;12.50;99.90;;;;;;5084967;28;20207;-77
2023/03/20 10:24:38;;;;;;;0.70;0.70;;;12.30;99.90;;;;;;5116846;28;20172;-77
2023/03/20 10:27:17;;;;;;;2.47;0.80;;;12.10;99.90;;;;;;5088141;28;20266;-77
2023/03/20 10:30:33;;;;;;;1.17;0.60;;;12.40;99.90;;;;;;5096370;28;20155;-77
2023/03/20 10:33:32;;;;;;;0.70;0.60;;;12.60;99.90;;;;;;5061191;28;20649;-77
2023/03/20 10:36:16;;;;;;;0.80;0.70;;;12.30;99.90;;;;;;5077939;28;20651;-77
2023/03/20 10:39:10;;;;;;;0.70;0.60;;;12.10;99.90;;;;;;5096877;28;20217;-77
2023/03/20 10:41:40;;;;;;;1.23;1.10;;;11.80;99.90;;;;;;5087924;28;20223;-77
2023/03/20 10:44:14;;;;;;;1.20;0.90;;;11.90;99.90;;;;;;5097964;28;20215;-77
2023/03/20 10:46:49;;;;;;;1.97;0.97;;;12.30;99.90;;;;;;5096374;28;20164;-77
2023/03/20 10:49:35;;;;;;;2.20;0.80;;;13.60;99.90;;;;;;5095852;28;20161;-77
2023/03/20 10:52:06;;;;;;;1.00;0.77;;;13.60;99.90;;;;;;5095800;28;20220;-77
2023/03/20 10:54:37;;;;;;;1.00;0.87;;;13.30;99.90;;;;;;5095854;28;20166;-77
2023/03/20 10:57:06;;;;;;;1.20;0.90;;;12.70;99.90;;;;;;5096599;28;20191;-79
2023/03/20 10:59:43;;;;;;;1.10;1.00;;;13.00;99.90;;;;;;5096200;28;20252;-78
2023/03/20 11:02:18;;;;;;;0.93;0.70;;;13.20;99.90;;;;;;5095346;28;20571;-77
2023/03/20 11:04:44;;;;;;;1.53;1.00;;;13.40;99.90;;;;;;5077931;28;20530;-77
2023/03/20 11:07:26;;;;;;;1.00;1.00;;;14.00;99.90;;;;;;5096134;28;20585;-77
2023/03/20 11:10:04;;;;;;;1.10;1.00;;;14.80;99.90;;;;;;5095505;28;20194;-76
2023/03/20 11:12:48;;;;;;;1.00;1.00;;;15.60;99.90;;;;;;5077141;28;20189;-77
2023/03/20 11:15:21;;;;;;;1.30;1.20;;;16.10;99.90;;;;;;5077310;28;20276;-77
2023/03/20 11:17:58;;;;;;;1.40;1.30;;;16.10;95.40;;;;;;5095881;28;20644;-77
2023/03/20 11:20:25;;;;;;;2.37;2.13;;;15.20;96.40;;;;;;5095221;28;20202;-77
2023/03/20 11:23:00;;;;;;;2.40;1.07;;;14.60;97.80;;;;;;5094940;28;20196;-77
2023/03/20 11:25:38;;;;;;;1.33;0.97;;;13.90;98.60;;;;;;5094597;28;20164;-77
2023/03/20 11:28:25;;;;;;;2.97;1.90;;;13.60;99.20;;;;;;5095175;28;20152;-77
2023/03/20 11:31:13;;;;;;;1.10;1.00;;;13.20;99.70;;;;;;5095362;28;20188;-77
2023/03/20 11:33:44;;;;;;;4.30;1.13;;;12.90;99.90;;;;;;5094861;28;20150;-77
2023/03/20 11:36:32;;;;;;;1.10;1.00;;;12.50;99.90;;;;;;5095341;28;20165;-76
2023/03/20 11:39:14;;;;;;;1.47;1.30;;;12.20;99.90;;;;;;5095214;28;20161;-77
2023/03/20 11:41:52;;;;;;;1.20;1.03;;;12.10;99.90;;;;;;5094747;28;20194;-76
2023/03/20 11:44:29;;;;;;;1.87;1.50;;;11.80;99.90;;;;;;5094821;28;20208;-76
2023/03/20 11:46:58;;;;;;;1.70;1.40;;;11.60;99.90;;;;;;5094721;28;20615;-76
2023/03/20 11:49:26;;;;;;;1.47;1.27;;;11.50;99.90;;;;;;5094504;28;20195;-76
2023/03/20 11:51:54;;;;;;;1.43;1.30;;;11.30;99.90;;;;;;5094263;28;20197;-76
2023/03/20 11:54:23;;;;;;;1.50;1.30;;;11.20;99.90;;;;;;5094645;28;20180;-76
2023/03/20 11:56:59;;;;;;;1.97;1.60;;;11.30;99.90;;;;;;5094438;28;20665;-77
2023/03/20 11:59:36;;;;;;;1.67;1.40;;;11.50;99.90;;;;;;5093292;28;20176;-78
2023/03/20 12:02:12;;;;;;;1.80;1.70;;;11.60;99.90;;;;;;5074613;28;20212;-76
2023/03/20 12:04:42;;;;;;;1.80;1.63;;;11.80;99.90;;;;;;5093348;28;20164;-76
2023/03/20 12:07:33;;;;;;;2.70;1.70;;;12.10;99.90;;;;;;5093191;28;20157;-76
2023/03/20 12:10:09;;;;;;;1.30;1.20;;;12.20;99.90;;;;;;5093056;28;20153;-76
2023/03/20 12:12:44;;;;;;;1.93;1.73;;;12.50;99.90;;;;;;5092892;28;20183;-76
2023/03/20 12:15:24;;;;;;;1.50;1.40;;;13.00;99.90;;;;;;5093796;28;20260;-76
2023/03/20 12:18:08;;;;;;;1.30;1.20;;;13.30;99.90;;;;;;5095928;28;20251;-77
2023/03/20 12:20:48;;;;;;;2.63;1.00;;;13.50;99.90;;;;;;5098900;28;20594;-76
2023/03/20 12:23:23;;;;;;;2.03;1.30;;;15.10;99.90;;;;;;5113991;28;20180;-76
2023/03/20 12:25:51;;;;;;;1.10;1.00;;;14.80;99.90;;;;;;5096061;28;20204;-76
2023/03/20 12:28:25;;;;;;;0.87;0.87;;;14.20;99.60;;;;;;5095756;28;20260;-76
2023/03/20 12:31:04;;;;;;;1.10;1.00;;;14.90;98.90;;;;;;5114047;28;20640;-76
2023/03/20 12:33:39;;;;;;;1.80;1.20;;;15.90;96.90;;;;;;5113826;28;20204;-76
2023/03/20 12:36:15;;;;;;;4.53;1.10;;;16.60;96.30;;;;;;5095675;28;20182;-76
2023/03/20 12:38:42;;;;;;;1.47;1.27;;;17.30;95.20;;;;;;5095685;28;20175;-76
2023/03/20 12:41:11;;;;;;;0.90;0.70;;;18.10;94.80;;;;;;5095353;28;20732;-76
2023/03/20 12:44:14;;;;;;;1.10;0.90;;;18.10;88.90;;;;;;5095441;28;20175;-76
2023/03/20 12:46:40;;;;;;;0.90;0.90;;;18.10;87.00;;;;;;5114080;28;20167;-76
2023/03/20 12:49:11;;;;;;;1.07;0.97;;;18.10;88.50;;;;;;5114327;28;20521;-77
2023/03/20 12:51:51;;;;;;;1.50;1.30;;;18.50;82.50;;;;;;5114389;28;20825;-76
2023/03/20 12:54:56;;;;;;;3.63;1.00;;;18.50;84.60;;;;;;5095522;28;20222;-76
2023/03/20 12:57:37;;;;;;;1.30;1.13;;;18.50;86.50;;;;;;5113014;28;20189;-77
2023/03/20 13:00:35;;;;;;;1.20;1.10;;;18.90;80.70;;;;;;5113760;28;20202;-77
2023/03/20 13:03:05;;;;;;;1.47;1.17;;;18.60;86.20;;;;;;5095890;28;20228;-77
2023/03/20 13:05:46;;;;;;;1.50;1.23;;;18.80;81.90;;;;;;5114497;28;20247;-77
2023/03/20 13:08:17;;;;;;;1.13;1.03;;;17.90;80.40;;;;;;5114416;28;20286;-76
2023/03/20 13:11:12;;;;;;;1.70;1.10;;;18.20;79.30;;;;;;5113468;28;20190;-77
2023/03/20 13:14:12;;;;;;;1.67;1.07;;;18.10;80.40;;;;;;5099269;28;20196;-77
2023/03/20 13:17:04;;;;;;;1.07;0.97;;;17.90;79.70;;;;;;5113856;28;20174;-76
2023/03/20 13:19:44;;;;;;;1.13;1.03;;;17.10;83.20;;;;;;5113388;28;20163;-77
2023/03/20 13:22:24;;;;;;;1.30;1.20;;;17.40;82.50;;;;;;5095009;28;20211;-77
2023/03/20 13:24:56;;;;;;;1.20;1.03;;;18.40;81.10;;;;;;5113337;28;20607;-77
2023/03/20 13:27:25;;;;;;;3.97;1.53;;;18.50;81.40;;;;;;5095253;28;20163;-77
2023/03/20 13:30:19;;;;;;;1.47;1.20;;;19.00;78.10;;;;;;5113481;28;20171;-76
2023/03/20 13:33:05;;;;;;;1.10;1.00;;;19.10;76.20;;;;;;5094980;28;20227;-77
2023/03/20 13:35:59;;;;;;;1.10;1.00;;;19.50;78.50;;;;;;5113304;28;20236;-77
2023/03/20 13:38:34;;;;;;;1.40;1.20;;;20.10;75.70;;;;;;5106209;28;20181;-76
2023/03/20 13:41:03;;;;;;;1.43;1.20;;;19.40;75.50;;;;;;5113573;28;20277;-77
2023/03/20 13:43:56;;;;;;;0.80;0.80;;;19.20;76.80;;;;;;5113011;28;20196;-77
2023/03/20 13:46:28;;;;;;;0.93;0.90;;;19.40;74.20;;;;;;5113387;28;20174;-76
2023/03/20 13:48:58;;;;;;;1.13;1.03;;;18.40;75.40;;;;;;5096767;28;20178;-77
2023/03/20 13:51:57;;;;;;;1.43;1.30;;;18.50;77.00;;;;;;5117285;28;20207;-77
2023/03/20 13:54:35;;;;;;;1.10;1.00;;;19.00;77.50;;;;;;5116968;28;20530;-76
2023/03/20 13:57:25;;;;;;;1.23;1.13;;;18.90;74.80;;;;;;5116966;28;20192;-77
2023/03/20 14:00:18;;;;;;;1.00;0.90;;;18.00;74.20;;;;;;5117136;28;20647;-77
2023/03/20 14:03:02;;;;;;;1.30;1.20;;;18.10;75.00;;;;;;5098795;28;20207;-76
2023/03/20 14:05:35;;;;;;;1.10;1.00;;;18.70;73.70;;;;;;5117962;28;20159;-78
2023/03/20 14:08:22;;;;;;;1.10;1.00;;;18.80;72.70;;;;;;5117223;28;20164;-77
2023/03/20 14:11:12;;;;;;;1.40;0.90;;;19.50;73.20;;;;;;5117048;28;20188;-76
2023/03/20 14:13:42;;;;;;;2.20;1.00;;;19.70;71.90;;;;;;5116772;28;20163;-77
2023/03/20 14:16:12;;;;;;;1.13;0.93;;;17.80;74.20;;;;;;5117993;28;20179;-77
2023/03/20 14:18:39;;;;;;;1.40;1.00;;;15.80;77.50;;;;;;5117064;28;20156;-77
2023/03/20 14:21:14;;;;;;;2.47;1.13;;;14.90;84.20;;;;;;5117348;28;20661;-77
2023/03/20 14:23:48;;;;;;;1.50;1.40;;;14.90;85.20;;;;;;5116779;28;20202;-77
2023/03/20 14:26:25;;;;;;;1.57;1.47;;;14.60;89.00;;;;;;5098494;28;20200;-77
2023/03/20 14:29:09;;;;;;;1.83;1.67;;;14.40;90.90;;;;;;5117098;28;20618;-76
2023/03/20 14:31:40;;;;;;;1.60;1.50;;;14.60;91.00;;;;;;5116932;28;20652;-77
2023/03/20 14:34:12;;;;;;;3.03;2.53;;;14.70;91.10;;;;;;5116904;28;20159;-77
2023/03/20 14:37:02;;;;;;;3.33;2.90;;;14.40;91.90;;;;;;5097329;28;20201;-77
2023/03/20 14:39:47;;;;;;;2.40;1.90;;;14.20;92.40;;;;;;5115537;28;20174;-77
2023/03/20 14:42:23;;;;;;;1.70;1.60;;;13.80;93.70;;;;;;5115266;28;20316;-77
2023/03/20 14:45:06;;;;;;;2.63;1.50;;;13.40;94.00;;;;;;5115123;28;20171;-76
2023/03/20 14:47:52;;;;;;;1.83;1.50;;;13.70;94.30;;;;;;5115500;28;20217;-76
2023/03/20 14:50:33;;;;;;;3.03;1.60;;;14.80;93.20;;;;;;5115685;28;20223;-76
2023/03/20 14:53:27;;;;;;;2.17;1.97;;;14.10;92.70;;;;;;5116196;28;20181;-76
2023/03/20 14:55:56;;;;;;;1.60;1.50;;;14.70;92.50;;;;;;5098082;28;20606;-76
2023/03/20 14:58:34;;;;;;;4.20;1.40;;;15.00;92.00;;;;;;5101305;28;20184;-77
2023/03/20 15:01:03;;;;;;;2.10;1.40;;;15.30;92.20;;;;;;5115955;28;20570;-77
2023/03/20 15:03:29;;;;;;;1.67;1.33;;;15.90;91.00;;;;;;5115783;28;20205;-77
2023/03/20 15:05:58;;;;;;;2.67;1.80;;;16.50;86.60;;;;;;5116318;28;20256;-76
2023/03/20 15:08:28;;;;;;;2.17;1.33;;;16.00;87.90;;;;;;5116236;28;20289;-76
2023/03/20 15:10:57;;;;;;;1.50;1.40;;;16.00;87.70;;;;;;5116023;28;20567;-76
2023/03/20 15:13:24;;;;;;;2.10;1.90;;;15.10;90.30;;;;;;5115719;28;20174;-76
2023/03/20 15:15:54;;;;;;;4.37;2.07;;;15.20;90.30;;;;;;5097487;28;20268;-77
2023/03/20 15:18:24;;;;;;;1.93;1.73;;;15.00;90.60;;;;;;5116098;28;20571;-77
2023/03/20 15:20:49;;;;;;;3.63;1.70;;;14.80;90.50;;;;;;5115623;28;20216;-76
2023/03/20 15:23:15;;;;;;;3.03;1.83;;;14.60;91.30;;;;;;5115424;28;20679;-76
2023/03/20 15:25:43;;;;;;;2.53;1.37;;;14.00;91.90;;;;;;5115540;28;20170;-76
2023/03/20 15:28:23;;;;;;;1.97;1.63;;;13.60;92.10;;;;;;5115486;28;20165;-76
2023/03/20 15:30:52;;;;;;;1.90;1.47;;;13.20;92.70;;;;;;5115669;28;20665;-76
2023/03/20 15:33:44;;;;;;;2.87;1.77;;;13.00;93.90;;;;;;5097001;28;20184;-76
2023/03/20 15:36:16;;;;;;;2.10;1.40;;;12.60;95.20;;;;;;5112013;28;20187;-76
2023/03/20 15:38:44;;;;;;;2.43;1.33;;;12.30;95.40;;;;;;5115423;28;20156;-76
2023/03/20 15:41:30;;;;;;;2.50;1.00;;;12.30;95.10;;;;;;5115358;28;20208;-76
2023/03/20 15:44:22;;;;;;;1.30;1.10;;;12.30;94.70;;;;;;5115230;28;20156;-76
2023/03/20 15:47:16;;;;;;;1.30;1.20;;;12.20;93.70;;;;;;5096907;28;20172;-76
2023/03/20 15:49:42;;;;;;;1.40;1.30;;;12.20;93.90;;;;;;5115137;28;20180;-76
2023/03/20 15:52:28;;;;;;;1.30;1.20;;;12.20;94.40;;;;;;5114910;28;20218;-76
2023/03/20 15:54:59;;;;;;;2.80;1.30;;;12.10;94.80;;;;;;5115096;28;20198;-76
2023/03/20 15:57:33;;;;;;;5.57;1.50;;;11.90;95.70;;;;;;5115293;28;20247;-76
2023/03/20 15:59:59;;;;;;;1.23;1.13;;;11.80;96.20;;;;;;5115012;28;20213;-76
2023/03/20 16:02:27;;;;;;;1.83;1.50;;;11.70;97.00;;;;;;5114530;28;20296;-76
2023/03/20 16:04:55;;;;;;;1.97;1.40;;;11.70;97.40;;;;;;5114904;28;20522;-76
2023/03/20 16:07:25;;;;;;;2.80;1.47;;;11.60;97.80;;;;;;5115303;28;20225;-76
2023/03/20 16:09:51;;;;;;;2.50;1.67;;;11.50;98.30;;;;;;5096600;28;20236;-76
2023/03/20 16:12:18;;;;;;;3.30;1.70;;;11.40;98.90;;;;;;5114035;28;20221;-76
2023/03/20 16:14:46;;;;;;;2.60;1.57;;;11.40;99.70;;;;;;5114676;28;20171;-76
2023/03/20 16:17:13;;;;;;;1.67;1.30;;;11.30;99.80;;;;;;5114599;28;20167;-76
